sensor_id;sensor_type;location;lat;lon;timestamp;P1;durP1;ratioP1;P2;durP2;ratioP2
20314;SDS011;10315;50.958;13.080;2023-11-19T00:08:00;3.50;;;1.87;;
20314;SDS011;10315;50.958;13.080;2023-11-19T00:18:03;2.03;;;1.57;;
20314;SDS011;10315;50.958;13.080;2023-11-19T00:28:05;1.73;;;1.27;;
20314;SDS011;10315;50.958;13.080;2023-11-19T00:38:08;1.23;;;1.00;;
20314;SDS011;10315;50.958;13.080;2023-11-19T00:48:09;1.23;;;1.03;;
20314;SDS011;10315;50.958;13.080;2023-11-19T00:58:12;0.80;;;0.80;;
20314;SDS011;10315;50.958;13.080;2023-11-19T01:08:14;0.93;;;0.80;;
20314;SDS011;10315;50.958;13.080;2023-11-19T01:18:18;0.53;;;0.53;;
20314;SDS011;10315;50.958;13.080;2023-11-19T01:28:20;0.53;;;0.53;;
20314;SDS011;10315;50.958;13.080;2023-11-19T01:38:23;0.60;;;0.60;;
20314;SDS011;10315;50.958;13.080;2023-11-19T01:48:24;0.40;;;0.40;;
20314;SDS011;10315;50.958;13.080;2023-11-19T01:58:27;1.10;;;0.50;;
20314;SDS011;10315;50.958;13.080;2023-11-19T02:08:31;0.57;;;0.43;;
20314;SDS011;10315;50.958;13.080;2023-11-19T02:18:34;0.60;;;0.60;;
20314;SDS011;10315;50.958;13.080;2023-11-19T02:28:37;0.50;;;0.50;;
20314;SDS011;10315;50.958;13.080;2023-11-19T02:38:40;0.30;;;0.30;;
20314;SDS011;10315;50.958;13.080;2023-11-19T02:48:43;0.30;;;0.30;;
20314;SDS011;10315;50.958;13.080;2023-11-19T02:58:46;0.40;;;0.40;;
20314;SDS011;10315;50.958;13.080;2023-11-19T03:08:50;1.57;;;0.40;;
20314;SDS011;10315;50.958;13.080;2023-11-19T03:18:53;0.40;;;0.40;;
20314;SDS011;10315;50.958;13.080;2023-11-19T03:28:56;0.50;;;0.50;;
20314;SDS011;10315;50.958;13.080;2023-11-19T03:38:58;1.40;;;0.60;;
20314;SDS011;10315;50.958;13.080;2023-11-19T03:49:01;0.43;;;0.43;;
20314;SDS011;10315;50.958;13.080;2023-11-19T03:59:04;0.40;;;0.40;;
20314;SDS011;10315;50.958;13.080;2023-11-19T04:09:07;0.60;;;0.60;;
20314;SDS011;10315;50.958;13.080;2023-11-19T04:19:08;0.80;;;0.80;;
20314;SDS011;10315;50.958;13.080;2023-11-19T04:29:12;0.60;;;0.60;;
20314;SDS011;10315;50.958;13.080;2023-11-19T04:39:17;0.80;;;0.80;;
20314;SDS011;10315;50.958;13.080;2023-11-19T04:49:20;0.40;;;0.40;;
20314;SDS011;10315;50.958;13.080;2023-11-19T04:59:22;0.50;;;0.50;;
20314;SDS011;10315;50.958;13.080;2023-11-19T05:09:25;0.33;;;0.33;;
20314;SDS011;10315;50.958;13.080;2023-11-19T05:19:26;2.00;;;0.50;;
20314;SDS011;10315;50.958;13.080;2023-11-19T05:29:29;0.60;;;0.43;;
20314;SDS011;10315;50.958;13.080;2023-11-19T05:39:31;0.90;;;0.90;;
20314;SDS011;10315;50.958;13.080;2023-11-19T05:49:34;1.23;;;0.50;;
20314;SDS011;10315;50.958;13.080;2023-11-19T05:59:36;1.63;;;0.50;;
20314;SDS011;10315;50.958;13.080;2023-11-19T06:09:39;0.63;;;0.47;;
20314;SDS011;10315;50.958;13.080;2023-11-19T06:19:41;0.57;;;0.40;;
20314;SDS011;10315;50.958;13.080;2023-11-19T06:29:44;0.40;;;0.40;;
20314;SDS011;10315;50.958;13.080;2023-11-19T06:39:46;0.40;;;0.40;;
20314;SDS011;10315;50.958;13.080;2023-11-19T06:49:48;0.70;;;0.70;;
20314;SDS011;10315;50.958;13.080;2023-11-19T06:59:50;0.30;;;0.30;;
20314;SDS011;10315;50.958;13.080;2023-11-19T07:09:53;0.40;;;0.40;;
20314;SDS011;10315;50.958;13.080;2023-11-19T07:19:55;0.30;;;0.30;;
20314;SDS011;10315;50.958;13.080;2023-11-19T07:30:01;0.30;;;0.30;;
20314;SDS011;10315;50.958;13.080;2023-11-19T07:40:03;0.30;;;0.30;;
20314;SDS011;10315;50.958;13.080;2023-11-19T07:50:07;0.70;;;0.63;;
20314;SDS011;10315;50.958;13.080;2023-11-19T08:00:10;0.53;;;0.53;;
20314;SDS011;10315;50.958;13.080;2023-11-19T08:10:14;2.50;;;0.60;;
20314;SDS011;10315;50.958;13.080;2023-11-19T08:20:16;0.37;;;0.37;;
20314;SDS011;10315;50.958;13.080;2023-11-19T08:30:19;0.70;;;0.53;;
20314;SDS011;10315;50.958;13.080;2023-11-19T08:40:20;1.20;;;0.60;;
20314;SDS011;10315;50.958;13.080;2023-11-19T08:50:23;1.13;;;0.60;;
20314;SDS011;10315;50.958;13.080;2023-11-19T09:00:25;4.20;;;0.60;;
20314;SDS011;10315;50.958;13.080;2023-11-19T09:10:28;0.40;;;0.40;;
20314;SDS011;10315;50.958;13.080;2023-11-19T09:20:30;0.90;;;0.53;;
20314;SDS011;10315;50.958;13.080;2023-11-19T09:30:39;5.37;;;1.07;;
20314;SDS011;10315;50.958;13.080;2023-11-19T09:40:41;1.30;;;0.70;;
20314;SDS011;10315;50.958;13.080;2023-11-19T09:50:44;3.50;;;0.93;;
20314;SDS011;10315;50.958;13.080;2023-11-19T10:00:46;1.60;;;0.73;;
20314;SDS011;10315;50.958;13.080;2023-11-19T10:10:50;0.50;;;0.50;;
20314;SDS011;10315;50.958;13.080;2023-11-19T10:20:52;2.73;;;0.50;;
20314;SDS011;10315;50.958;13.080;2023-11-19T10:30:57;1.23;;;0.80;;
20314;SDS011;10315;50.958;13.080;2023-11-19T10:40:58;0.50;;;0.50;;
20314;SDS011;10315;50.958;13.080;2023-11-19T10:51:02;1.00;;;0.93;;
20314;SDS011;10315;50.958;13.080;2023-11-19T11:01:08;2.77;;;0.83;;
20314;SDS011;10315;50.958;13.080;2023-11-19T11:11:16;4.87;;;0.80;;
20314;SDS011;10315;50.958;13.080;2023-11-19T11:21:21;2.17;;;0.97;;
20314;SDS011;10315;50.958;13.080;2023-11-19T11:31:31;4.67;;;1.27;;
20314;SDS011;10315;50.958;13.080;2023-11-19T11:41:38;8.20;;;1.20;;
20314;SDS011;10315;50.958;13.080;2023-11-19T12:02:04;6.93;;;1.50;;
20314;SDS011;10315;50.958;13.080;2023-11-19T12:12:18;6.35;;;1.65;;
20314;SDS011;10315;50.958;13.080;2023-11-19T12:22:23;5.90;;;1.58;;
20314;SDS011;10315;50.958;13.080;2023-11-19T12:32:27;9.15;;;1.85;;
20314;SDS011;10315;50.958;13.080;2023-11-19T12:42:38;7.88;;;1.95;;
20314;SDS011;10315;50.958;13.080;2023-11-19T12:52:42;9.07;;;1.65;;
20314;SDS011;10315;50.958;13.080;2023-11-19T13:02:44;7.47;;;1.80;;
20314;SDS011;10315;50.958;13.080;2023-11-19T13:13:00;11.20;;;1.40;;
20314;SDS011;10315;50.958;13.080;2023-11-19T13:23:04;5.90;;;1.77;;
20314;SDS011;10315;50.958;13.080;2023-11-19T13:33:09;14.67;;;1.70;;
20314;SDS011;10315;50.958;13.080;2023-11-19T13:43:12;6.97;;;1.83;;
20314;SDS011;10315;50.958;13.080;2023-11-19T13:53:15;8.87;;;1.97;;
20314;SDS011;10315;50.958;13.080;2023-11-19T14:03:17;9.73;;;1.80;;
20314;SDS011;10315;50.958;13.080;2023-11-19T14:13:20;8.17;;;2.20;;
20314;SDS011;10315;50.958;13.080;2023-11-19T14:23:21;8.23;;;2.00;;
20314;SDS011;10315;50.958;13.080;2023-11-19T14:33:25;16.90;;;2.00;;
20314;SDS011;10315;50.958;13.080;2023-11-19T14:43:27;11.40;;;1.57;;
20314;SDS011;10315;50.958;13.080;2023-11-19T14:53:30;6.53;;;1.80;;
20314;SDS011;10315;50.958;13.080;2023-11-19T15:03:31;13.30;;;2.10;;
20314;SDS011;10315;50.958;13.080;2023-11-19T15:13:34;6.50;;;1.67;;
20314;SDS011;10315;50.958;13.080;2023-11-19T15:23:37;10.73;;;2.20;;
20314;SDS011;10315;50.958;13.080;2023-11-19T15:33:41;8.50;;;2.00;;
20314;SDS011;10315;50.958;13.080;2023-11-19T15:43:43;6.40;;;2.10;;
20314;SDS011;10315;50.958;13.080;2023-11-19T15:53:47;8.17;;;2.00;;
20314;SDS011;10315;50.958;13.080;2023-11-19T16:03:48;10.43;;;2.00;;
20314;SDS011;10315;50.958;13.080;2023-11-19T16:13:53;10.07;;;2.10;;
20314;SDS011;10315;50.958;13.080;2023-11-19T16:23:55;9.73;;;2.10;;
20314;SDS011;10315;50.958;13.080;2023-11-19T16:33:58;16.30;;;2.00;;
20314;SDS011;10315;50.958;13.080;2023-11-19T16:44:00;6.87;;;2.43;;
20314;SDS011;10315;50.958;13.080;2023-11-19T16:54:04;8.70;;;2.30;;
20314;SDS011;10315;50.958;13.080;2023-11-19T17:04:06;9.70;;;1.73;;
20314;SDS011;10315;50.958;13.080;2023-11-19T17:14:09;15.27;;;4.80;;
20314;SDS011;10315;50.958;13.080;2023-11-19T17:24:11;11.07;;;3.57;;
20314;SDS011;10315;50.958;13.080;2023-11-19T17:34:14;12.37;;;2.07;;
20314;SDS011;10315;50.958;13.080;2023-11-19T17:44:18;10.73;;;3.37;;
20314;SDS011;10315;50.958;13.080;2023-11-19T17:54:21;10.83;;;2.23;;
20314;SDS011;10315;50.958;13.080;2023-11-19T18:04:23;11.13;;;2.33;;
20314;SDS011;10315;50.958;13.080;2023-11-19T18:14:27;9.47;;;2.37;;
20314;SDS011;10315;50.958;13.080;2023-11-19T18:24:29;13.43;;;3.27;;
20314;SDS011;10315;50.958;13.080;2023-11-19T18:34:32;9.63;;;2.63;;
20314;SDS011;10315;50.958;13.080;2023-11-19T18:44:34;6.30;;;1.80;;
20314;SDS011;10315;50.958;13.080;2023-11-19T18:54:37;5.27;;;1.93;;
20314;SDS011;10315;50.958;13.080;2023-11-19T19:04:38;11.03;;;2.87;;
20314;SDS011;10315;50.958;13.080;2023-11-19T19:14:41;10.57;;;1.50;;
20314;SDS011;10315;50.958;13.080;2023-11-19T19:24:44;7.90;;;1.70;;
20314;SDS011;10315;50.958;13.080;2023-11-19T19:34:47;12.87;;;2.20;;
20314;SDS011;10315;50.958;13.080;2023-11-19T19:44:49;9.00;;;2.00;;
20314;SDS011;10315;50.958;13.080;2023-11-19T19:54:52;5.60;;;2.47;;
20314;SDS011;10315;50.958;13.080;2023-11-19T20:04:53;7.97;;;2.07;;
20314;SDS011;10315;50.958;13.080;2023-11-19T20:14:56;11.33;;;2.43;;
20314;SDS011;10315;50.958;13.080;2023-11-19T20:25:01;13.07;;;2.80;;
20314;SDS011;10315;50.958;13.080;2023-11-19T20:35:05;5.63;;;1.80;;
20314;SDS011;10315;50.958;13.080;2023-11-19T20:45:07;5.13;;;1.67;;
20314;SDS011;10315;50.958;13.080;2023-11-19T20:55:11;16.50;;;7.23;;
20314;SDS011;10315;50.958;13.080;2023-11-19T21:05:14;6.83;;;2.47;;
20314;SDS011;10315;50.958;13.080;2023-11-19T21:15:17;4.47;;;1.20;;
20314;SDS011;10315;50.958;13.080;2023-11-19T21:25:19;4.90;;;1.50;;
20314;SDS011;10315;50.958;13.080;2023-11-19T21:35:22;9.27;;;1.63;;
20314;SDS011;10315;50.958;13.080;2023-11-19T21:45:24;3.90;;;1.20;;
20314;SDS011;10315;50.958;13.080;2023-11-19T21:55:27;10.03;;;1.27;;
20314;SDS011;10315;50.958;13.080;2023-11-19T22:05:29;7.67;;;1.97;;
20314;SDS011;10315;50.958;13.080;2023-11-19T22:15:32;13.07;;;2.23;;
20314;SDS011;10315;50.958;13.080;2023-11-19T22:25:34;15.07;;;2.10;;
20314;SDS011;10315;50.958;13.080;2023-11-19T22:35:37;9.13;;;2.23;;
20314;SDS011;10315;50.958;13.080;2023-11-19T22:45:39;8.37;;;1.50;;
20314;SDS011;10315;50.958;13.080;2023-11-19T22:55:42;8.03;;;1.90;;
20314;SDS011;10315;50.958;13.080;2023-11-19T23:05:44;10.43;;;2.17;;
20314;SDS011;10315;50.958;13.080;2023-11-19T23:15:47;8.57;;;1.60;;
20314;SDS011;10315;50.958;13.080;2023-11-19T23:25:48;7.37;;;1.40;;
20314;SDS011;10315;50.958;13.080;2023-11-19T23:35:52;3.90;;;1.10;;
20314;SDS011;10315;50.958;13.080;2023-11-19T23:45:54;14.23;;;1.80;;
20314;SDS011;10315;50.958;13.080;2023-11-19T23:55:57;11.87;;;2.03;;
